Eagle, Colorado
Current Conditions -  °F | °C
As of 12:50 PM on Tuesday 21 Oct 2014 (Local Time) from KEGE Reporting Station
Light Rain Light Rain  
Wind Chill: 55°   Ceiling: 11000
Heat Index: 55°   Visibility: 10mi
Dew Point: 43°   Wind: 10mph
Humidity: 63%   Direction: 270°W
Pressure: 30.14"   Gusts: NA
Location:  39.66°N, 106.83°W
Report Text: KEGE 211850Z 27009KT 10SM -RA SCT060 BKN110 13/06 A3014
Loading
Personal Weather Stations






























Interactive Weather Map
Tropical Storm Tracking
New forecast layout! Learn more

10-Day Weather Forecast

Advertisements
Track Severe Weather on mobile